PWSweather.com
Personal Weather Stations
Station Observations
SUBOTICARS
SuboticaYU

SuboticaYU

Lat: 46.1296717, Lon: 19.641551

Elevation: 361

Station Type: Nexus

http://sumeteo.info

Latest ConditionsUpdated 2:40:01 PM GMT+01:01 Sunday, Jun 16, 2019
Currently Today's Max Today's Min Today's Average
Temperature 92.9°F33.8°C 93.6°F34.2°C 65.5°F18.6°C 79.0°F26.1°C
Dew Point 61.2°F16.2°C 69.8°F21.0°C 61.2°F16.2°C 64.3°F17.9°C
Winds 2.3 mph E3.7 kmh E 8.1 mph -13.0 kmh - - 2.5 mph 4.0 kmh
Wind Gusts 3.5 mph5.6 kmh 11.5 mph18.5 kmh - -
Humidity 35% 88% 35% 64%
Pressure 29.54 in1000.3 mb 29.60 in1002.4 mb 29.54 in1000.3 mb -
Hour Temp Dew Point Humidity Winds Wind Gusts Pressure Precip Precip Rate Daily Precip Total
02:40 PM 92.9°F33.8°C 61.2°F16.2°C 35% 2.3 mph E3.7 kmh E 3.5 mph5.6 kmh 29.54 in1000.3 mb - 0.00 in0.0 mm 0.00 in0.0 mm
02:35 PM 93.6°F34.2°C 62.7°F17.1°C 36% 2.3 mph SSE3.7 kmh SSE 4.6 mph7.4 kmh 29.54 in1000.3 mb - 0.00 in0.0 mm 0.00 in0.0 mm
02:30 PM 93.4°F34.1°C 62.4°F16.9°C 36% 3.5 mph NE5.6 kmh NE 3.5 mph5.6 kmh 29.54 in1000.3 mb - 0.00 in0.0 mm 0.00 in0.0 mm
02:25 PM 93.0°F33.9°C 61.3°F16.3°C 35% 3.5 mph SSE5.6 kmh SSE 4.6 mph7.4 kmh 29.55 in1000.7 mb - 0.00 in0.0 mm 0.00 in0.0 mm
02:20 PM 93.0°F33.9°C 62.1°F16.7°C 36% 6.9 mph SE11.1 kmh SE 8.1 mph13.0 kmh 29.55 in1000.7 mb - 0.00 in0.0 mm 0.00 in0.0 mm
02:15 PM 92.8°F33.8°C 62.0°F16.7°C 36% 3.5 mph SE5.6 kmh SE 3.5 mph5.6 kmh 29.55 in1000.7 mb - 0.00 in0.0 mm 0.00 in0.0 mm
02:10 PM 92.8°F33.8°C 62.0°F16.7°C 36% 5.8 mph SW9.3 kmh SW 8.1 mph13.0 kmh 29.55 in1000.7 mb - 0.00 in0.0 mm 0.00 in0.0 mm
02:00 PM 93.0°F33.9°C 62.9°F17.2°C 37% 5.8 mph SE9.3 kmh SE 5.8 mph9.3 kmh 29.55 in1000.7 mb - 0.00 in0.0 mm 0.00 in0.0 mm
01:55 PM 92.8°F33.8°C 62.7°F17.1°C 37% 4.6 mph ESE7.4 kmh ESE 3.5 mph5.6 kmh 29.55 in1000.7 mb - 0.00 in0.0 mm 0.00 in0.0 mm
01:50 PM 92.7°F33.7°C 61.8°F16.6°C 36% 8.1 mph S13.0 kmh S 11.5 mph18.5 kmh 29.55 in1000.7 mb - 0.00 in0.0 mm 0.00 in0.0 mm
01:45 PM 92.8°F33.8°C 62.7°F17.1°C 37% 3.5 mph E5.6 kmh E 3.5 mph5.6 kmh 29.55 in1000.7 mb - 0.00 in0.0 mm 0.00 in0.0 mm
01:40 PM 92.6°F33.7°C 62.5°F16.9°C 37% 4.6 mph ESE7.4 kmh ESE 5.8 mph9.3 kmh 29.56 in1001.0 mb - 0.00 in0.0 mm 0.00 in0.0 mm
01:35 PM 92.8°F33.8°C 62.7°F17.1°C 37% 4.6 mph E7.4 kmh E 5.8 mph9.3 kmh 29.56 in1001.0 mb - 0.00 in0.0 mm 0.00 in0.0 mm
01:30 PM 92.8°F33.8°C 63.5°F17.5°C 38% 5.8 mph E9.3 kmh E 5.8 mph9.3 kmh 29.56 in1001.0 mb - 0.00 in0.0 mm 0.00 in0.0 mm
01:25 PM 92.7°F33.7°C 62.6°F17.0°C 37% 3.5 mph ESE5.6 kmh ESE 5.8 mph9.3 kmh 29.56 in1001.0 mb - 0.00 in0.0 mm 0.00 in0.0 mm
01:20 PM 92.3°F33.5°C 62.3°F16.8°C 37% 3.5 mph ENE5.6 kmh ENE 3.5 mph5.6 kmh 29.56 in1001.0 mb - 0.00 in0.0 mm 0.00 in0.0 mm
01:15 PM 92.5°F33.6°C 63.2°F17.3°C 38% 3.5 mph E5.6 kmh E 5.8 mph9.3 kmh 29.56 in1001.0 mb - 0.00 in0.0 mm 0.00 in0.0 mm
01:10 PM 92.3°F33.5°C 63.0°F17.2°C 38% 4.6 mph SSE7.4 kmh SSE 9.2 mph14.8 kmh 29.56 in1001.0 mb - 0.00 in0.0 mm 0.00 in0.0 mm
01:00 PM 92.0°F33.3°C 62.7°F17.1°C 38% 3.5 mph NE5.6 kmh NE 3.5 mph5.6 kmh 29.56 in1001.0 mb - 0.00 in0.0 mm 0.00 in0.0 mm
12:55 PM 92.3°F33.5°C 63.0°F17.2°C 38% 4.6 mph SE7.4 kmh SE 5.8 mph9.3 kmh 29.57 in1001.4 mb - 0.00 in0.0 mm 0.00 in0.0 mm
12:50 PM 92.1°F33.4°C 62.1°F16.7°C 37% 3.5 mph E5.6 kmh E 6.9 mph11.1 kmh 29.57 in1001.4 mb - 0.00 in0.0 mm 0.00 in0.0 mm
12:45 PM 91.6°F33.1°C 62.4°F16.9°C 38% 4.6 mph E7.4 kmh E 6.9 mph11.1 kmh 29.57 in1001.4 mb - 0.00 in0.0 mm 0.00 in0.0 mm
12:40 PM 91.4°F33.0°C 62.2°F16.8°C 38% 4.6 mph E7.4 kmh E 5.8 mph9.3 kmh 29.58 in1001.7 mb - 0.00 in0.0 mm 0.00 in0.0 mm
12:35 PM 91.6°F33.1°C 62.4°F16.9°C 38% 3.5 mph E5.6 kmh E 4.6 mph7.4 kmh 29.58 in1001.7 mb - 0.00 in0.0 mm 0.00 in0.0 mm
12:30 PM 91.8°F33.2°C 63.3°F17.4°C 39% 3.5 mph ENE5.6 kmh ENE 4.6 mph7.4 kmh 29.58 in1001.7 mb - 0.00 in0.0 mm 0.00 in0.0 mm
12:25 PM 91.8°F33.2°C 63.3°F17.4°C 39% 5.8 mph SE9.3 kmh SE 5.8 mph9.3 kmh 29.58 in1001.7 mb - 0.00 in0.0 mm 0.00 in0.0 mm
12:20 PM 91.6°F33.1°C 63.1°F17.3°C 39% 4.6 mph E7.4 kmh E 4.6 mph7.4 kmh 29.58 in1001.7 mb - 0.00 in0.0 mm 0.00 in0.0 mm
12:15 PM 91.6°F33.1°C 63.1°F17.3°C 39% 6.9 mph SSE11.1 kmh SSE 8.1 mph13.0 kmh 29.58 in1001.7 mb - 0.00 in0.0 mm 0.00 in0.0 mm
12:10 PM 91.2°F32.9°C 62.8°F17.1°C 39% 4.6 mph E7.4 kmh E 3.5 mph5.6 kmh 29.58 in1001.7 mb - 0.00 in0.0 mm 0.00 in0.0 mm
12:00 PM 91.2°F32.9°C 63.5°F17.5°C 40% 5.8 mph ESE9.3 kmh ESE 5.8 mph9.3 kmh 29.58 in1001.7 mb - 0.00 in0.0 mm 0.00 in0.0 mm
11:55 AM 91.2°F32.9°C 63.5°F17.5°C 40% 5.8 mph SE9.3 kmh SE 6.9 mph11.1 kmh 29.59 in1002.0 mb - 0.00 in0.0 mm 0.00 in0.0 mm
11:50 AM 91.4°F33.0°C 63.0°F17.2°C 39% 5.8 mph SE9.3 kmh SE 4.6 mph7.4 kmh 29.59 in1002.0 mb - 0.00 in0.0 mm 0.00 in0.0 mm
11:45 AM 91.1°F32.8°C 63.4°F17.4°C 40% 5.8 mph SE9.3 kmh SE 6.9 mph11.1 kmh 29.59 in1002.0 mb - 0.00 in0.0 mm 0.00 in0.0 mm
11:40 AM 91.0°F32.8°C 63.4°F17.4°C 40% 5.8 mph S9.3 kmh S 6.9 mph11.1 kmh 29.59 in1002.0 mb - 0.00 in0.0 mm 0.00 in0.0 mm
11:35 AM 91.2°F32.9°C 64.2°F17.9°C 41% 4.6 mph E7.4 kmh E 5.8 mph9.3 kmh 29.59 in1002.0 mb - 0.00 in0.0 mm 0.00 in0.0 mm
11:30 AM 90.9°F32.7°C 63.9°F17.7°C 41% 6.9 mph SSW11.1 kmh SSW 8.1 mph13.0 kmh 29.59 in1002.0 mb - 0.00 in0.0 mm 0.00 in0.0 mm
11:25 AM 90.9°F32.7°C 63.9°F17.7°C 41% 5.8 mph E9.3 kmh E 6.9 mph11.1 kmh 29.59 in1002.0 mb - 0.00 in0.0 mm 0.00 in0.0 mm
11:20 AM 90.5°F32.5°C 64.3°F17.9°C 42% 3.5 mph ENE5.6 kmh ENE 3.5 mph5.6 kmh 29.59 in1002.0 mb - 0.00 in0.0 mm 0.00 in0.0 mm
11:15 AM 90.5°F32.5°C 65.0°F18.3°C 43% 5.8 mph E9.3 kmh E 8.1 mph13.0 kmh 29.59 in1002.0 mb - 0.00 in0.0 mm 0.00 in0.0 mm
11:10 AM 90.2°F32.3°C 64.7°F18.2°C 43% 4.6 mph E7.4 kmh E 4.6 mph7.4 kmh 29.59 in1002.0 mb - 0.00 in0.0 mm 0.00 in0.0 mm
11:00 AM 90.1°F32.3°C 64.6°F18.1°C 43% 8.1 mph SE13.0 kmh SE 9.2 mph14.8 kmh 29.59 in1002.0 mb - 0.00 in0.0 mm 0.00 in0.0 mm
10:55 AM 89.8°F32.1°C 65.0°F18.3°C 44% 3.5 mph E5.6 kmh E 5.8 mph9.3 kmh 29.60 in1002.4 mb - 0.00 in0.0 mm 0.00 in0.0 mm
10:50 AM 89.6°F32.0°C 64.1°F17.8°C 43% 5.8 mph E9.3 kmh E 6.9 mph11.1 kmh 29.60 in1002.4 mb - 0.00 in0.0 mm 0.00 in0.0 mm
10:45 AM 89.4°F31.9°C 64.6°F18.1°C 44% 4.6 mph ENE7.4 kmh ENE 3.5 mph5.6 kmh 29.60 in1002.4 mb - 0.00 in0.0 mm 0.00 in0.0 mm
10:40 AM 89.6°F32.0°C 65.4°F18.6°C 45% 4.6 mph E7.4 kmh E 3.5 mph5.6 kmh 29.60 in1002.4 mb - 0.00 in0.0 mm 0.00 in0.0 mm
10:35 AM 89.6°F32.0°C 64.8°F18.2°C 44% 5.8 mph ENE9.3 kmh ENE 8.1 mph13.0 kmh 29.60 in1002.4 mb - 0.00 in0.0 mm 0.00 in0.0 mm
10:30 AM 89.6°F32.0°C 65.4°F18.6°C 45% 3.5 mph E5.6 kmh E 3.5 mph5.6 kmh 29.60 in1002.4 mb - 0.00 in0.0 mm 0.00 in0.0 mm
10:25 AM 89.2°F31.8°C 65.8°F18.8°C 46% 4.6 mph E7.4 kmh E 5.8 mph9.3 kmh 29.59 in1002.0 mb - 0.00 in0.0 mm 0.00 in0.0 mm
10:20 AM 89.1°F31.7°C 65.6°F18.7°C 46% 5.8 mph E9.3 kmh E 5.8 mph9.3 kmh 29.59 in1002.0 mb - 0.00 in0.0 mm 0.00 in0.0 mm
10:15 AM 88.9°F31.6°C 66.1°F18.9°C 47% 4.6 mph E7.4 kmh E 6.9 mph11.1 kmh 29.59 in1002.0 mb - 0.00 in0.0 mm 0.00 in0.0 mm
10:10 AM 88.9°F31.6°C 66.6°F19.2°C 48% 4.6 mph ENE7.4 kmh ENE 5.8 mph9.3 kmh 29.59 in1002.0 mb - 0.00 in0.0 mm 0.00 in0.0 mm
10:00 AM 88.3°F31.3°C 66.2°F19.0°C 48% 3.5 mph E5.6 kmh E 4.6 mph7.4 kmh 29.59 in1002.0 mb - 0.00 in0.0 mm 0.00 in0.0 mm
09:55 AM 87.6°F30.9°C 66.7°F19.3°C 50% 4.6 mph ESE7.4 kmh ESE 6.9 mph11.1 kmh 29.59 in1002.0 mb - 0.00 in0.0 mm 0.00 in0.0 mm
09:50 AM 87.4°F30.8°C 66.5°F19.2°C 50% 4.6 mph ESE7.4 kmh ESE 4.6 mph7.4 kmh 29.59 in1002.0 mb - 0.00 in0.0 mm 0.00 in0.0 mm
09:45 AM 87.3°F30.7°C 66.4°F19.1°C 50% 3.5 mph SE5.6 kmh SE 3.5 mph5.6 kmh 29.59 in1002.0 mb - 0.00 in0.0 mm 0.00 in0.0 mm
09:40 AM 87.2°F30.7°C 67.4°F19.7°C 52% 3.5 mph E5.6 kmh E 3.5 mph5.6 kmh 29.59 in1002.0 mb - 0.00 in0.0 mm 0.00 in0.0 mm
09:35 AM 86.9°F30.5°C 67.2°F19.6°C 52% 4.6 mph SE7.4 kmh SE 4.6 mph7.4 kmh 29.59 in1002.0 mb - 0.00 in0.0 mm 0.00 in0.0 mm
09:30 AM 86.5°F30.3°C 67.4°F19.7°C 53% 3.5 mph SE5.6 kmh SE 3.5 mph5.6 kmh 29.59 in1002.0 mb - 0.00 in0.0 mm 0.00 in0.0 mm
09:25 AM 86.9°F30.5°C 68.3°F20.2°C 54% 4.6 mph ENE7.4 kmh ENE 5.8 mph9.3 kmh 29.59 in1002.0 mb - 0.00 in0.0 mm 0.00 in0.0 mm
09:20 AM 86.7°F30.4°C 68.1°F20.1°C 54% 4.6 mph E7.4 kmh E 5.8 mph9.3 kmh 29.59 in1002.0 mb - 0.00 in0.0 mm 0.00 in0.0 mm
09:15 AM 86.5°F30.3°C 69.0°F20.6°C 56% 3.5 mph E5.6 kmh E 3.5 mph5.6 kmh 29.59 in1002.0 mb - 0.00 in0.0 mm 0.00 in0.0 mm
09:10 AM 86.4°F30.2°C 68.8°F20.4°C 56% 2.3 mph ESE3.7 kmh ESE 3.5 mph5.6 kmh 29.58 in1001.7 mb - 0.00 in0.0 mm 0.00 in0.0 mm
09:00 AM 85.8°F29.9°C 68.8°F20.4°C 57% 2.3 mph ENE3.7 kmh ENE 3.5 mph5.6 kmh 29.58 in1001.7 mb - 0.00 in0.0 mm 0.00 in0.0 mm
08:55 AM 85.5°F29.7°C 68.0°F20.0°C 56% 3.5 mph ESE5.6 kmh ESE 5.8 mph9.3 kmh 29.59 in1002.0 mb - 0.00 in0.0 mm 0.00 in0.0 mm
08:50 AM 85.5°F29.7°C 68.5°F20.3°C 57% 4.6 mph ESE7.4 kmh ESE 4.6 mph7.4 kmh 29.59 in1002.0 mb - 0.00 in0.0 mm 0.00 in0.0 mm
08:45 AM 85.3°F29.6°C 68.9°F20.5°C 58% 3.5 mph ENE5.6 kmh ENE 4.6 mph7.4 kmh 29.59 in1002.0 mb - 0.00 in0.0 mm 0.00 in0.0 mm
08:40 AM 85.0°F29.4°C 68.6°F20.3°C 58% 3.5 mph E5.6 kmh E 3.5 mph5.6 kmh 29.58 in1001.7 mb - 0.00 in0.0 mm 0.00 in0.0 mm
08:35 AM 84.9°F29.4°C 68.5°F20.3°C 58% 4.6 mph SE7.4 kmh SE 6.9 mph11.1 kmh 29.58 in1001.7 mb - 0.00 in0.0 mm 0.00 in0.0 mm
08:30 AM 84.9°F29.4°C 69.5°F20.8°C 60% 5.8 mph SSE9.3 kmh SSE 8.1 mph13.0 kmh 29.58 in1001.7 mb - 0.00 in0.0 mm 0.00 in0.0 mm
08:25 AM 84.7°F29.3°C 69.3°F20.7°C 60% 3.5 mph ESE5.6 kmh ESE 4.6 mph7.4 kmh 29.58 in1001.7 mb - 0.00 in0.0 mm 0.00 in0.0 mm
08:20 AM 84.4°F29.1°C 68.5°F20.3°C 59% 3.5 mph SSE5.6 kmh SSE 4.6 mph7.4 kmh 29.58 in1001.7 mb - 0.00 in0.0 mm 0.00 in0.0 mm
08:15 AM 84.1°F28.9°C 69.7°F20.9°C 62% 2.3 mph E3.7 kmh E 2.3 mph3.7 kmh 29.58 in1001.7 mb - 0.00 in0.0 mm 0.00 in0.0 mm
08:10 AM 83.7°F28.7°C 69.8°F21.0°C 63% Calm Calm -- 29.58 in1001.7 mb - 0.00 in0.0 mm 0.00 in0.0 mm
08:00 AM 83.1°F28.4°C 69.2°F20.7°C 63% 4.6 mph SE7.4 kmh SE 4.6 mph7.4 kmh 29.58 in1001.7 mb - 0.00 in0.0 mm 0.00 in0.0 mm
07:55 AM 82.6°F28.1°C 69.2°F20.7°C 64% Calm Calm 2.3 mph3.7 kmh 29.58 in1001.7 mb - 0.00 in0.0 mm 0.00 in0.0 mm
07:50 AM 81.9°F27.7°C 68.5°F20.3°C 64% 2.3 mph ESE3.7 kmh ESE 2.3 mph3.7 kmh 29.58 in1001.7 mb - 0.00 in0.0 mm 0.00 in0.0 mm
07:45 AM 81.4°F27.4°C 68.0°F20.0°C 64% 3.5 mph SE5.6 kmh SE 3.5 mph5.6 kmh 29.58 in1001.7 mb - 0.00 in0.0 mm 0.00 in0.0 mm
07:40 AM 80.8°F27.1°C 67.9°F19.9°C 65% 1.2 mph E1.9 kmh E 1.2 mph1.9 kmh 29.58 in1001.7 mb - 0.00 in0.0 mm 0.00 in0.0 mm
07:35 AM 80.4°F26.9°C 68.5°F20.3°C 67% 2.3 mph ENE3.7 kmh ENE 3.5 mph5.6 kmh 29.58 in1001.7 mb - 0.00 in0.0 mm 0.00 in0.0 mm
07:30 AM 80.1°F26.7°C 68.5°F20.3°C 68% 3.5 mph SE5.6 kmh SE 4.6 mph7.4 kmh 29.58 in1001.7 mb - 0.00 in0.0 mm 0.00 in0.0 mm
07:25 AM 79.5°F26.4°C 68.5°F20.3°C 69% 3.5 mph SE5.6 kmh SE 3.5 mph5.6 kmh 29.58 in1001.7 mb - 0.00 in0.0 mm 0.00 in0.0 mm
07:20 AM 79.2°F26.2°C 68.1°F20.1°C 69% 1.2 mph SE1.9 kmh SE 3.5 mph5.6 kmh 29.58 in1001.7 mb - 0.00 in0.0 mm 0.00 in0.0 mm
07:15 AM 78.7°F25.9°C 68.1°F20.1°C 70% 2.3 mph E3.7 kmh E 3.5 mph5.6 kmh 29.58 in1001.7 mb - 0.00 in0.0 mm 0.00 in0.0 mm
07:10 AM 78.2°F25.7°C 68.0°F20.0°C 71% 2.3 mph ENE3.7 kmh ENE 3.5 mph5.6 kmh 29.58 in1001.7 mb - 0.00 in0.0 mm 0.00 in0.0 mm
07:00 AM 77.4°F25.2°C 67.6°F19.8°C 72% 2.3 mph ENE3.7 kmh ENE 3.5 mph5.6 kmh 29.58 in1001.7 mb - 0.00 in0.0 mm 0.00 in0.0 mm
06:55 AM 76.8°F24.9°C 67.5°F19.7°C 73% 1.2 mph SE1.9 kmh SE 3.5 mph5.6 kmh 29.58 in1001.7 mb - 0.00 in0.0 mm 0.00 in0.0 mm
06:50 AM 76.5°F24.7°C 67.6°F19.8°C 74% Calm Calm -- 29.58 in1001.7 mb - 0.00 in0.0 mm 0.00 in0.0 mm
06:45 AM 75.9°F24.4°C 67.4°F19.7°C 75% 2.3 mph E3.7 kmh E 3.5 mph5.6 kmh 29.58 in1001.7 mb - 0.00 in0.0 mm 0.00 in0.0 mm
06:40 AM 75.5°F24.2°C 67.0°F19.4°C 75% 1.2 mph E1.9 kmh E 2.3 mph3.7 kmh 29.57 in1001.4 mb - 0.00 in0.0 mm 0.00 in0.0 mm
06:35 AM 75.0°F23.9°C 66.9°F19.4°C 76% 1.2 mph E1.9 kmh E 2.3 mph3.7 kmh 29.57 in1001.4 mb - 0.00 in0.0 mm 0.00 in0.0 mm
06:30 AM 74.5°F23.6°C 67.2°F19.6°C 78% 1.2 mph ENE1.9 kmh ENE 3.5 mph5.6 kmh 29.57 in1001.4 mb - 0.00 in0.0 mm 0.00 in0.0 mm
06:25 AM 73.8°F23.2°C 66.5°F19.2°C 78% 2.3 mph ENE3.7 kmh ENE 3.5 mph5.6 kmh 29.57 in1001.4 mb - 0.00 in0.0 mm 0.00 in0.0 mm
06:20 AM 73.4°F23.0°C 66.5°F19.2°C 79% 2.3 mph ESE3.7 kmh ESE 2.3 mph3.7 kmh 29.57 in1001.4 mb - 0.00 in0.0 mm 0.00 in0.0 mm
06:15 AM 72.8°F22.7°C 66.2°F19.0°C 80% 1.2 mph ESE1.9 kmh ESE -- 29.57 in1001.4 mb - 0.00 in0.0 mm 0.00 in0.0 mm
06:10 AM 72.3°F22.4°C 66.1°F18.9°C 81% 2.3 mph E3.7 kmh E 3.5 mph5.6 kmh 29.57 in1001.4 mb - 0.00 in0.0 mm 0.00 in0.0 mm
06:00 AM 71.4°F21.9°C 65.6°F18.7°C 82% 2.3 mph E3.7 kmh E 2.3 mph3.7 kmh 29.57 in1001.4 mb - 0.00 in0.0 mm 0.00 in0.0 mm
05:55 AM 70.9°F21.6°C 65.1°F18.4°C 82% 2.3 mph ENE3.7 kmh ENE 1.2 mph1.9 kmh 29.58 in1001.7 mb - 0.00 in0.0 mm 0.00 in0.0 mm
05:50 AM 70.6°F21.4°C 65.1°F18.4°C 83% 2.3 mph SE3.7 kmh SE 4.6 mph7.4 kmh 29.58 in1001.7 mb - 0.00 in0.0 mm 0.00 in0.0 mm
05:45 AM 70.1°F21.2°C 64.7°F18.2°C 83% 3.5 mph ENE5.6 kmh ENE 3.5 mph5.6 kmh 29.58 in1001.7 mb - 0.00 in0.0 mm 0.00 in0.0 mm
05:40 AM 69.8°F21.0°C 64.7°F18.2°C 84% 2.3 mph ENE3.7 kmh ENE 3.5 mph5.6 kmh 29.58 in1001.7 mb - 0.00 in0.0 mm 0.00 in0.0 mm
05:35 AM 69.4°F20.8°C 64.4°F18.0°C 84% 2.3 mph E3.7 kmh E 3.5 mph5.6 kmh 29.58 in1001.7 mb - 0.00 in0.0 mm 0.00 in0.0 mm
05:30 AM 69.3°F20.7°C 64.9°F18.3°C 86% 3.5 mph E5.6 kmh E 3.5 mph5.6 kmh 29.58 in1001.7 mb - 0.00 in0.0 mm 0.00 in0.0 mm
05:25 AM 69.1°F20.6°C 64.7°F18.2°C 86% 2.3 mph ENE3.7 kmh ENE 3.5 mph5.6 kmh 29.57 in1001.4 mb - 0.00 in0.0 mm 0.00 in0.0 mm
05:20 AM 68.7°F20.4°C 64.7°F18.2°C 87% 3.5 mph ENE5.6 kmh ENE 4.6 mph7.4 kmh 29.57 in1001.4 mb - 0.00 in0.0 mm 0.00 in0.0 mm
05:15 AM 68.4°F20.2°C 64.3°F17.9°C 87% 1.2 mph ENE1.9 kmh ENE 2.3 mph3.7 kmh 29.57 in1001.4 mb - 0.00 in0.0 mm 0.00 in0.0 mm
05:10 AM 68.0°F20.0°C 64.0°F17.8°C 87% 1.2 mph NE1.9 kmh NE 2.3 mph3.7 kmh 29.56 in1001.0 mb - 0.00 in0.0 mm 0.00 in0.0 mm
05:00 AM 67.3°F19.6°C 63.6°F17.6°C 88% 1.2 mph NNE1.9 kmh NNE 1.2 mph1.9 kmh 29.56 in1001.0 mb - 0.00 in0.0 mm 0.00 in0.0 mm
04:55 AM 66.9°F19.4°C 62.9°F17.2°C 87% Calm Calm -- 29.57 in1001.4 mb - 0.00 in0.0 mm 0.00 in0.0 mm
04:50 AM 66.7°F19.3°C 62.7°F17.1°C 87% Calm Calm -- 29.57 in1001.4 mb - 0.00 in0.0 mm 0.00 in0.0 mm
04:45 AM 66.3°F19.1°C 62.3°F16.8°C 87% Calm Calm -- 29.57 in1001.4 mb - 0.00 in0.0 mm 0.00 in0.0 mm
04:40 AM 66.2°F19.0°C 62.2°F16.8°C 87% Calm Calm -- 29.56 in1001.0 mb - 0.00 in0.0 mm 0.00 in0.0 mm
04:35 AM 66.2°F19.0°C 62.2°F16.8°C 87% Calm Calm -- 29.56 in1001.0 mb - 0.00 in0.0 mm 0.00 in0.0 mm
04:30 AM 66.0°F18.9°C 62.0°F16.7°C 87% 1.2 mph NNE1.9 kmh NNE -- 29.56 in1001.0 mb - 0.00 in0.0 mm 0.00 in0.0 mm
04:25 AM 66.0°F18.9°C 62.4°F16.9°C 88% Calm Calm -- 29.56 in1001.0 mb - 0.00 in0.0 mm 0.00 in0.0 mm
04:20 AM 66.0°F18.9°C 62.4°F16.9°C 88% Calm Calm -- 29.56 in1001.0 mb - 0.00 in0.0 mm 0.00 in0.0 mm
04:15 AM 66.2°F19.0°C 62.2°F16.8°C 87% Calm Calm -- 29.56 in1001.0 mb - 0.00 in0.0 mm 0.00 in0.0 mm
04:10 AM 66.2°F19.0°C 62.2°F16.8°C 87% Calm Calm -- 29.56 in1001.0 mb - 0.00 in0.0 mm 0.00 in0.0 mm
04:00 AM 66.4°F19.1°C 62.4°F16.9°C 87% Calm Calm -- 29.56 in1001.0 mb - 0.00 in0.0 mm 0.00 in0.0 mm
03:55 AM 66.4°F19.1°C 62.4°F16.9°C 87% Calm Calm -- 29.55 in1000.7 mb - 0.00 in0.0 mm 0.00 in0.0 mm
03:50 AM 66.3°F19.1°C 62.3°F16.8°C 87% 1.2 mph ENE1.9 kmh ENE -- 29.55 in1000.7 mb - 0.00 in0.0 mm 0.00 in0.0 mm
03:45 AM 66.1°F18.9°C 62.1°F16.7°C 87% 1.2 mph ENE1.9 kmh ENE 1.2 mph1.9 kmh 29.55 in1000.7 mb - 0.00 in0.0 mm 0.00 in0.0 mm
03:40 AM 66.2°F19.0°C 61.9°F16.6°C 86% Calm Calm 2.3 mph3.7 kmh 29.55 in1000.7 mb - 0.00 in0.0 mm 0.00 in0.0 mm
03:35 AM 65.7°F18.7°C 61.4°F16.3°C 86% Calm Calm -- 29.55 in1000.7 mb - 0.00 in0.0 mm 0.00 in0.0 mm
03:30 AM 65.5°F18.6°C 61.2°F16.2°C 86% Calm Calm -- 29.55 in1000.7 mb - 0.00 in0.0 mm 0.00 in0.0 mm
03:25 AM 65.7°F18.7°C 61.4°F16.3°C 86% Calm Calm -- 29.55 in1000.7 mb - 0.00 in0.0 mm 0.00 in0.0 mm
03:20 AM 65.8°F18.8°C 61.5°F16.4°C 86% Calm Calm -- 29.55 in1000.7 mb - 0.00 in0.0 mm 0.00 in0.0 mm
03:15 AM 65.9°F18.8°C 61.6°F16.4°C 86% Calm Calm -- 29.55 in1000.7 mb - 0.00 in0.0 mm 0.00 in0.0 mm
03:10 AM 66.0°F18.9°C 61.7°F16.5°C 86% Calm Calm -- 29.55 in1000.7 mb - 0.00 in0.0 mm 0.00 in0.0 mm
03:00 AM 66.2°F19.0°C 61.9°F16.6°C 86% Calm Calm -- 29.55 in1000.7 mb - 0.00 in0.0 mm 0.00 in0.0 mm
02:55 AM 66.6°F19.2°C 62.2°F16.8°C 86% Calm Calm -- 29.55 in1000.7 mb - 0.00 in0.0 mm 0.00 in0.0 mm
02:50 AM 66.4°F19.1°C 61.4°F16.3°C 84% Calm Calm -- 29.55 in1000.7 mb - 0.00 in0.0 mm 0.00 in0.0 mm
02:45 AM 66.6°F19.2°C 61.6°F16.4°C 84% Calm Calm -- 29.55 in1000.7 mb - 0.00 in0.0 mm 0.00 in0.0 mm
02:40 AM 66.7°F19.3°C 61.7°F16.5°C 84% Calm Calm -- 29.56 in1001.0 mb - 0.00 in0.0 mm 0.00 in0.0 mm
02:35 AM 66.7°F19.3°C 61.7°F16.5°C 84% Calm Calm -- 29.56 in1001.0 mb - 0.00 in0.0 mm 0.00 in0.0 mm
02:30 AM 66.9°F19.4°C 61.9°F16.6°C 84% Calm Calm -- 29.56 in1001.0 mb - 0.00 in0.0 mm 0.00 in0.0 mm
02:25 AM 67.1°F19.5°C 62.1°F16.7°C 84% Calm Calm -- 29.56 in1001.0 mb - 0.00 in0.0 mm 0.00 in0.0 mm
02:20 AM 67.1°F19.5°C 62.1°F16.7°C 84% Calm Calm -- 29.56 in1001.0 mb - 0.00 in0.0 mm 0.00 in0.0 mm
02:15 AM 67.1°F19.5°C 62.1°F16.7°C 84% Calm Calm -- 29.56 in1001.0 mb - 0.00 in0.0 mm 0.00 in0.0 mm
02:10 AM 67.3°F19.6°C 62.3°F16.8°C 84% Calm Calm -- 29.56 in1001.0 mb - 0.00 in0.0 mm 0.00 in0.0 mm
02:00 AM 67.3°F19.6°C 61.9°F16.6°C 83% Calm Calm -- 29.56 in1001.0 mb - 0.00 in0.0 mm 0.00 in0.0 mm
01:55 AM 67.3°F19.6°C 61.6°F16.4°C 82% Calm Calm -- 29.56 in1001.0 mb - 0.00 in0.0 mm 0.00 in0.0 mm
01:50 AM 67.1°F19.5°C 61.4°F16.3°C 82% Calm Calm -- 29.56 in1001.0 mb - 0.00 in0.0 mm 0.00 in0.0 mm
01:45 AM 67.3°F19.6°C 61.6°F16.4°C 82% Calm Calm -- 29.56 in1001.0 mb - 0.00 in0.0 mm 0.00 in0.0 mm
01:40 AM 67.5°F19.7°C 61.8°F16.6°C 82% Calm Calm -- 29.56 in1001.0 mb - 0.00 in0.0 mm 0.00 in0.0 mm
01:35 AM 67.6°F19.8°C 61.9°F16.6°C 82% Calm Calm -- 29.56 in1001.0 mb - 0.00 in0.0 mm 0.00 in0.0 mm
01:30 AM 67.8°F19.9°C 61.8°F16.6°C 81% Calm Calm -- 29.56 in1001.0 mb - 0.00 in0.0 mm 0.00 in0.0 mm
01:25 AM 67.8°F19.9°C 61.8°F16.6°C 81% Calm Calm -- 29.57 in1001.4 mb - 0.00 in0.0 mm 0.00 in0.0 mm
01:20 AM 68.0°F20.0°C 61.9°F16.6°C 81% Calm Calm -- 29.57 in1001.4 mb - 0.00 in0.0 mm 0.00 in0.0 mm
01:15 AM 68.2°F20.1°C 61.8°F16.6°C 80% Calm Calm -- 29.57 in1001.4 mb - 0.00 in0.0 mm 0.00 in0.0 mm
01:10 AM 68.4°F20.2°C 61.9°F16.6°C 80% Calm Calm -- 29.58 in1001.7 mb - 0.00 in0.0 mm 0.00 in0.0 mm
01:00 AM 68.7°F20.4°C 62.3°F16.8°C 80% Calm Calm -- 29.58 in1001.7 mb - 0.00 in0.0 mm 0.00 in0.0 mm
12:55 AM 68.7°F20.4°C 61.9°F16.6°C 79% Calm Calm -- 29.57 in1001.4 mb - 0.00 in0.0 mm 0.00 in0.0 mm
12:50 AM 68.9°F20.5°C 62.1°F16.7°C 79% Calm Calm -- 29.57 in1001.4 mb - 0.00 in0.0 mm 0.00 in0.0 mm
12:45 AM 69.1°F20.6°C 62.3°F16.8°C 79% Calm Calm -- 29.57 in1001.4 mb - 0.00 in0.0 mm 0.00 in0.0 mm
12:40 AM 69.3°F20.7°C 62.5°F16.9°C 79% Calm Calm -- 29.57 in1001.4 mb - 0.00 in0.0 mm 0.00 in0.0 mm
12:35 AM 69.4°F20.8°C 63.0°F17.2°C 80% Calm Calm -- 29.57 in1001.4 mb - 0.00 in0.0 mm 0.00 in0.0 mm
12:30 AM 69.6°F20.9°C 62.5°F16.9°C 78% Calm Calm -- 29.57 in1001.4 mb - 0.00 in0.0 mm 0.00 in0.0 mm
12:25 AM 69.8°F21.0°C 62.6°F17.0°C 78% Calm Calm -- 29.57 in1001.4 mb - 0.00 in0.0 mm 0.00 in0.0 mm
12:20 AM 70.2°F21.2°C 62.2°F16.8°C 76% Calm Calm -- 29.57 in1001.4 mb - 0.00 in0.0 mm 0.00 in0.0 mm
12:15 AM 70.3°F21.3°C 62.0°F16.7°C 75% Calm Calm -- 29.57 in1001.4 mb - 0.00 in0.0 mm 0.00 in0.0 mm
12:10 AM 70.7°F21.5°C 62.4°F16.9°C 75% Calm Calm -- 29.57 in1001.4 mb - 0.00 in0.0 mm 0.00 in0.0 mm
12:00 AM 71.2°F21.8°C 63.2°F17.3°C 76% Calm Calm -- 29.57 in1001.4 mb - 0.00 in0.0 mm 0.00 in0.0 mm